sensor_id;sensor_type;location;lat;lon;timestamp;P1;durP1;ratioP1;P2;durP2;ratioP2
69750;SDS011;57335;52.288;6.056;2023-05-07T00:00:08;22.98;;;12.60;;
69750;SDS011;57335;52.288;6.056;2023-05-07T00:02:35;23.30;;;12.18;;
69750;SDS011;57335;52.288;6.056;2023-05-07T00:05:02;23.60;;;13.20;;
69750;SDS011;57335;52.288;6.056;2023-05-07T00:07:29;24.38;;;12.80;;
69750;SDS011;57335;52.288;6.056;2023-05-07T00:09:55;22.75;;;12.98;;
69750;SDS011;57335;52.288;6.056;2023-05-07T00:12:21;25.05;;;13.27;;
69750;SDS011;57335;52.288;6.056;2023-05-07T00:14:48;22.40;;;12.73;;
69750;SDS011;57335;52.288;6.056;2023-05-07T00:17:14;25.52;;;14.10;;
69750;SDS011;57335;52.288;6.056;2023-05-07T00:19:41;26.45;;;14.88;;
69750;SDS011;57335;52.288;6.056;2023-05-07T00:22:07;27.80;;;15.10;;
69750;SDS011;57335;52.288;6.056;2023-05-07T00:24:34;24.85;;;14.32;;
69750;SDS011;57335;52.288;6.056;2023-05-07T00:27:00;27.85;;;15.32;;
69750;SDS011;57335;52.288;6.056;2023-05-07T00:29:27;30.20;;;14.68;;
69750;SDS011;57335;52.288;6.056;2023-05-07T00:31:53;29.95;;;15.38;;
69750;SDS011;57335;52.288;6.056;2023-05-07T00:34:19;29.58;;;15.32;;
69750;SDS011;57335;52.288;6.056;2023-05-07T00:36:46;29.38;;;15.90;;
69750;SDS011;57335;52.288;6.056;2023-05-07T00:39:12;29.27;;;15.68;;
69750;SDS011;57335;52.288;6.056;2023-05-07T00:41:38;28.75;;;16.70;;
69750;SDS011;57335;52.288;6.056;2023-05-07T00:44:05;32.90;;;16.65;;
69750;SDS011;57335;52.288;6.056;2023-05-07T00:46:31;30.00;;;16.73;;
69750;SDS011;57335;52.288;6.056;2023-05-07T00:48:59;29.30;;;16.23;;
69750;SDS011;57335;52.288;6.056;2023-05-07T00:51:25;28.17;;;15.32;;
69750;SDS011;57335;52.288;6.056;2023-05-07T00:53:53;32.63;;;16.90;;
69750;SDS011;57335;52.288;6.056;2023-05-07T00:56:22;32.03;;;17.33;;
69750;SDS011;57335;52.288;6.056;2023-05-07T00:58:49;30.73;;;16.90;;
69750;SDS011;57335;52.288;6.056;2023-05-07T01:01:16;27.25;;;15.82;;
69750;SDS011;57335;52.288;6.056;2023-05-07T01:03:42;30.88;;;16.30;;
69750;SDS011;57335;52.288;6.056;2023-05-07T01:06:09;31.60;;;16.75;;
69750;SDS011;57335;52.288;6.056;2023-05-07T01:08:39;28.15;;;16.60;;
69750;SDS011;57335;52.288;6.056;2023-05-07T01:11:07;31.35;;;17.65;;
69750;SDS011;57335;52.288;6.056;2023-05-07T01:13:34;30.30;;;16.83;;
69750;SDS011;57335;52.288;6.056;2023-05-07T01:16:02;29.65;;;16.10;;
69750;SDS011;57335;52.288;6.056;2023-05-07T01:18:29;32.88;;;17.25;;
69750;SDS011;57335;52.288;6.056;2023-05-07T01:20:55;32.05;;;17.08;;
69750;SDS011;57335;52.288;6.056;2023-05-07T01:23:25;32.47;;;17.35;;
69750;SDS011;57335;52.288;6.056;2023-05-07T01:25:52;32.72;;;17.13;;
69750;SDS011;57335;52.288;6.056;2023-05-07T01:28:19;34.55;;;17.95;;
69750;SDS011;57335;52.288;6.056;2023-05-07T01:30:50;35.85;;;17.77;;
69750;SDS011;57335;52.288;6.056;2023-05-07T01:33:21;35.75;;;17.35;;
69750;SDS011;57335;52.288;6.056;2023-05-07T01:35:48;36.25;;;17.90;;
69750;SDS011;57335;52.288;6.056;2023-05-07T01:38:17;29.90;;;16.33;;
69750;SDS011;57335;52.288;6.056;2023-05-07T01:40:45;29.70;;;16.63;;
69750;SDS011;57335;52.288;6.056;2023-05-07T01:43:11;26.35;;;14.43;;
69750;SDS011;57335;52.288;6.056;2023-05-07T01:45:38;29.85;;;16.52;;
69750;SDS011;57335;52.288;6.056;2023-05-07T01:48:06;29.77;;;16.85;;
69750;SDS011;57335;52.288;6.056;2023-05-07T01:50:34;26.95;;;14.48;;
69750;SDS011;57335;52.288;6.056;2023-05-07T01:53:01;40.88;;;18.60;;
69750;SDS011;57335;52.288;6.056;2023-05-07T01:55:28;38.55;;;17.77;;
69750;SDS011;57335;52.288;6.056;2023-05-07T01:57:54;39.45;;;18.60;;
69750;SDS011;57335;52.288;6.056;2023-05-07T02:00:20;40.20;;;19.13;;
69750;SDS011;57335;52.288;6.056;2023-05-07T02:02:47;40.40;;;19.50;;
69750;SDS011;57335;52.288;6.056;2023-05-07T02:05:13;42.20;;;19.85;;
69750;SDS011;57335;52.288;6.056;2023-05-07T02:07:40;42.58;;;19.80;;
69750;SDS011;57335;52.288;6.056;2023-05-07T02:10:06;42.42;;;19.85;;
69750;SDS011;57335;52.288;6.056;2023-05-07T02:12:33;40.60;;;18.73;;
69750;SDS011;57335;52.288;6.056;2023-05-07T02:14:59;42.17;;;20.52;;
69750;SDS011;57335;52.288;6.056;2023-05-07T02:17:26;44.20;;;20.20;;
69750;SDS011;57335;52.288;6.056;2023-05-07T02:19:52;42.63;;;20.73;;
69750;SDS011;57335;52.288;6.056;2023-05-07T02:22:18;41.72;;;20.10;;
69750;SDS011;57335;52.288;6.056;2023-05-07T02:24:45;40.70;;;20.23;;
69750;SDS011;57335;52.288;6.056;2023-05-07T02:27:11;42.97;;;20.10;;
69750;SDS011;57335;52.288;6.056;2023-05-07T02:29:37;46.20;;;21.63;;
69750;SDS011;57335;52.288;6.056;2023-05-07T02:32:04;43.17;;;20.20;;
69750;SDS011;57335;52.288;6.056;2023-05-07T02:34:30;45.70;;;21.90;;
69750;SDS011;57335;52.288;6.056;2023-05-07T02:36:57;46.72;;;21.95;;
69750;SDS011;57335;52.288;6.056;2023-05-07T02:39:23;47.05;;;21.38;;
69750;SDS011;57335;52.288;6.056;2023-05-07T02:41:49;47.72;;;21.48;;
69750;SDS011;57335;52.288;6.056;2023-05-07T02:44:16;41.97;;;20.55;;
69750;SDS011;57335;52.288;6.056;2023-05-07T02:46:42;47.38;;;21.42;;
69750;SDS011;57335;52.288;6.056;2023-05-07T02:49:08;41.38;;;19.77;;
69750;SDS011;57335;52.288;6.056;2023-05-07T02:51:35;43.28;;;21.55;;
69750;SDS011;57335;52.288;6.056;2023-05-07T02:54:01;38.72;;;19.15;;
69750;SDS011;57335;52.288;6.056;2023-05-07T02:56:27;42.15;;;20.70;;
69750;SDS011;57335;52.288;6.056;2023-05-07T02:58:54;43.00;;;20.65;;
69750;SDS011;57335;52.288;6.056;2023-05-07T03:01:20;42.67;;;20.23;;
69750;SDS011;57335;52.288;6.056;2023-05-07T03:03:47;42.35;;;21.15;;
69750;SDS011;57335;52.288;6.056;2023-05-07T03:06:13;46.00;;;20.65;;
69750;SDS011;57335;52.288;6.056;2023-05-07T03:08:40;39.95;;;20.60;;
69750;SDS011;57335;52.288;6.056;2023-05-07T03:11:06;42.20;;;20.70;;
69750;SDS011;57335;52.288;6.056;2023-05-07T03:13:32;36.70;;;18.40;;
69750;SDS011;57335;52.288;6.056;2023-05-07T03:15:59;42.60;;;19.98;;
69750;SDS011;57335;52.288;6.056;2023-05-07T03:18:25;39.40;;;18.98;;
69750;SDS011;57335;52.288;6.056;2023-05-07T03:20:51;39.20;;;20.10;;
69750;SDS011;57335;52.288;6.056;2023-05-07T03:23:18;39.25;;;19.70;;
69750;SDS011;57335;52.288;6.056;2023-05-07T03:25:44;36.67;;;19.65;;
69750;SDS011;57335;52.288;6.056;2023-05-07T03:28:11;37.15;;;19.08;;
69750;SDS011;57335;52.288;6.056;2023-05-07T03:30:37;41.00;;;20.45;;
69750;SDS011;57335;52.288;6.056;2023-05-07T03:33:04;41.28;;;19.92;;
69750;SDS011;57335;52.288;6.056;2023-05-07T03:35:30;43.83;;;20.00;;
69750;SDS011;57335;52.288;6.056;2023-05-07T03:37:56;42.10;;;20.85;;
69750;SDS011;57335;52.288;6.056;2023-05-07T03:40:23;40.38;;;19.65;;
69750;SDS011;57335;52.288;6.056;2023-05-07T03:42:49;42.30;;;20.77;;
69750;SDS011;57335;52.288;6.056;2023-05-07T03:45:15;39.72;;;20.70;;
69750;SDS011;57335;52.288;6.056;2023-05-07T03:47:42;41.85;;;20.10;;
69750;SDS011;57335;52.288;6.056;2023-05-07T03:50:08;45.05;;;22.60;;
69750;SDS011;57335;52.288;6.056;2023-05-07T03:52:35;41.13;;;20.30;;
69750;SDS011;57335;52.288;6.056;2023-05-07T03:55:02;36.25;;;18.80;;
69750;SDS011;57335;52.288;6.056;2023-05-07T03:57:28;38.00;;;19.17;;
69750;SDS011;57335;52.288;6.056;2023-05-07T03:59:55;39.35;;;18.25;;
69750;SDS011;57335;52.288;6.056;2023-05-07T04:02:21;42.63;;;19.88;;
69750;SDS011;57335;52.288;6.056;2023-05-07T04:04:48;41.17;;;20.52;;
69750;SDS011;57335;52.288;6.056;2023-05-07T04:07:15;41.30;;;19.02;;
69750;SDS011;57335;52.288;6.056;2023-05-07T04:09:41;38.58;;;18.48;;
69750;SDS011;57335;52.288;6.056;2023-05-07T04:12:08;39.28;;;18.77;;
69750;SDS011;57335;52.288;6.056;2023-05-07T04:14:34;40.75;;;19.80;;
69750;SDS011;57335;52.288;6.056;2023-05-07T04:17:00;39.30;;;19.45;;
69750;SDS011;57335;52.288;6.056;2023-05-07T04:19:27;39.33;;;18.85;;
69750;SDS011;57335;52.288;6.056;2023-05-07T04:21:53;38.70;;;18.73;;
69750;SDS011;57335;52.288;6.056;2023-05-07T04:24:19;43.25;;;19.20;;
69750;SDS011;57335;52.288;6.056;2023-05-07T04:26:46;37.90;;;19.02;;
69750;SDS011;57335;52.288;6.056;2023-05-07T04:29:12;39.65;;;18.35;;
69750;SDS011;57335;52.288;6.056;2023-05-07T04:31:38;36.10;;;18.17;;
69750;SDS011;57335;52.288;6.056;2023-05-07T04:34:05;36.70;;;16.58;;
69750;SDS011;57335;52.288;6.056;2023-05-07T04:36:31;32.28;;;15.82;;
69750;SDS011;57335;52.288;6.056;2023-05-07T04:38:57;32.88;;;15.60;;
69750;SDS011;57335;52.288;6.056;2023-05-07T04:41:24;35.35;;;16.08;;
69750;SDS011;57335;52.288;6.056;2023-05-07T04:43:50;33.33;;;15.68;;
69750;SDS011;57335;52.288;6.056;2023-05-07T04:46:16;32.75;;;15.63;;
69750;SDS011;57335;52.288;6.056;2023-05-07T04:48:43;31.38;;;15.30;;
69750;SDS011;57335;52.288;6.056;2023-05-07T04:51:09;32.20;;;14.63;;
69750;SDS011;57335;52.288;6.056;2023-05-07T04:53:36;29.27;;;14.82;;
69750;SDS011;57335;52.288;6.056;2023-05-07T04:56:03;31.58;;;15.43;;
69750;SDS011;57335;52.288;6.056;2023-05-07T04:58:29;33.55;;;15.30;;
69750;SDS011;57335;52.288;6.056;2023-05-07T05:00:56;34.15;;;15.88;;
69750;SDS011;57335;52.288;6.056;2023-05-07T05:03:22;33.13;;;15.43;;
69750;SDS011;57335;52.288;6.056;2023-05-07T05:05:49;30.88;;;14.95;;
69750;SDS011;57335;52.288;6.056;2023-05-07T05:08:17;36.95;;;16.08;;
69750;SDS011;57335;52.288;6.056;2023-05-07T05:10:44;32.08;;;14.55;;
69750;SDS011;57335;52.288;6.056;2023-05-07T05:13:10;31.75;;;14.23;;
69750;SDS011;57335;52.288;6.056;2023-05-07T05:15:37;32.13;;;15.30;;
69750;SDS011;57335;52.288;6.056;2023-05-07T05:18:03;31.52;;;14.50;;
69750;SDS011;57335;52.288;6.056;2023-05-07T05:20:29;30.77;;;14.70;;
69750;SDS011;57335;52.288;6.056;2023-05-07T05:22:56;34.15;;;14.95;;
69750;SDS011;57335;52.288;6.056;2023-05-07T05:25:22;35.63;;;15.88;;
69750;SDS011;57335;52.288;6.056;2023-05-07T05:27:48;33.42;;;14.98;;
69750;SDS011;57335;52.288;6.056;2023-05-07T05:30:15;32.85;;;15.32;;
69750;SDS011;57335;52.288;6.056;2023-05-07T05:32:41;33.28;;;16.08;;
69750;SDS011;57335;52.288;6.056;2023-05-07T05:35:08;33.17;;;15.65;;
69750;SDS011;57335;52.288;6.056;2023-05-07T05:37:34;33.55;;;16.27;;
69750;SDS011;57335;52.288;6.056;2023-05-07T05:40:00;33.63;;;16.33;;
69750;SDS011;57335;52.288;6.056;2023-05-07T05:42:27;31.08;;;13.80;;
69750;SDS011;57335;52.288;6.056;2023-05-07T05:44:53;35.05;;;15.80;;
69750;SDS011;57335;52.288;6.056;2023-05-07T05:47:19;35.92;;;15.93;;
69750;SDS011;57335;52.288;6.056;2023-05-07T05:49:46;30.55;;;15.05;;
69750;SDS011;57335;52.288;6.056;2023-05-07T05:52:12;32.42;;;15.57;;
69750;SDS011;57335;52.288;6.056;2023-05-07T05:54:38;35.88;;;16.23;;
69750;SDS011;57335;52.288;6.056;2023-05-07T05:57:05;32.10;;;15.95;;
69750;SDS011;57335;52.288;6.056;2023-05-07T05:59:31;33.35;;;15.43;;
69750;SDS011;57335;52.288;6.056;2023-05-07T06:01:58;37.92;;;16.15;;
69750;SDS011;57335;52.288;6.056;2023-05-07T06:04:24;32.22;;;16.38;;
69750;SDS011;57335;52.288;6.056;2023-05-07T06:06:50;32.58;;;16.30;;
69750;SDS011;57335;52.288;6.056;2023-05-07T06:09:17;32.30;;;15.07;;
69750;SDS011;57335;52.288;6.056;2023-05-07T06:11:43;31.40;;;14.93;;
69750;SDS011;57335;52.288;6.056;2023-05-07T06:14:10;33.55;;;15.88;;
69750;SDS011;57335;52.288;6.056;2023-05-07T06:16:36;32.17;;;14.88;;
69750;SDS011;57335;52.288;6.056;2023-05-07T06:19:03;29.00;;;14.23;;
69750;SDS011;57335;52.288;6.056;2023-05-07T06:21:29;32.35;;;15.20;;
69750;SDS011;57335;52.288;6.056;2023-05-07T06:23:56;35.90;;;16.27;;
69750;SDS011;57335;52.288;6.056;2023-05-07T06:26:22;28.13;;;13.57;;
69750;SDS011;57335;52.288;6.056;2023-05-07T06:28:48;33.40;;;16.13;;
69750;SDS011;57335;52.288;6.056;2023-05-07T06:31:15;33.08;;;16.25;;
69750;SDS011;57335;52.288;6.056;2023-05-07T06:33:44;29.77;;;14.25;;
69750;SDS011;57335;52.288;6.056;2023-05-07T06:36:10;32.75;;;15.45;;
69750;SDS011;57335;52.288;6.056;2023-05-07T06:38:37;30.20;;;14.60;;
69750;SDS011;57335;52.288;6.056;2023-05-07T06:41:03;34.75;;;15.82;;
69750;SDS011;57335;52.288;6.056;2023-05-07T06:43:31;30.20;;;14.48;;
69750;SDS011;57335;52.288;6.056;2023-05-07T06:45:58;31.83;;;15.50;;
69750;SDS011;57335;52.288;6.056;2023-05-07T06:48:24;33.13;;;15.40;;
69750;SDS011;57335;52.288;6.056;2023-05-07T06:50:51;30.17;;;14.80;;
69750;SDS011;57335;52.288;6.056;2023-05-07T06:53:17;31.10;;;14.48;;
69750;SDS011;57335;52.288;6.056;2023-05-07T06:55:43;34.13;;;15.63;;
69750;SDS011;57335;52.288;6.056;2023-05-07T06:58:10;31.05;;;14.55;;
69750;SDS011;57335;52.288;6.056;2023-05-07T07:00:36;35.20;;;16.50;;
69750;SDS011;57335;52.288;6.056;2023-05-07T07:03:02;35.25;;;16.75;;
69750;SDS011;57335;52.288;6.056;2023-05-07T07:05:29;37.38;;;16.27;;
69750;SDS011;57335;52.288;6.056;2023-05-07T07:07:55;33.70;;;16.20;;
69750;SDS011;57335;52.288;6.056;2023-05-07T07:10:22;33.60;;;15.60;;
69750;SDS011;57335;52.288;6.056;2023-05-07T07:12:48;35.38;;;16.42;;
69750;SDS011;57335;52.288;6.056;2023-05-07T07:15:15;32.30;;;15.82;;
69750;SDS011;57335;52.288;6.056;2023-05-07T07:17:42;35.13;;;16.60;;
69750;SDS011;57335;52.288;6.056;2023-05-07T07:20:09;38.03;;;17.15;;
69750;SDS011;57335;52.288;6.056;2023-05-07T07:22:37;31.83;;;16.10;;
69750;SDS011;57335;52.288;6.056;2023-05-07T07:25:03;33.67;;;16.05;;
69750;SDS011;57335;52.288;6.056;2023-05-07T07:27:30;32.67;;;15.18;;
69750;SDS011;57335;52.288;6.056;2023-05-07T07:29:56;29.15;;;14.00;;
69750;SDS011;57335;52.288;6.056;2023-05-07T07:32:23;27.73;;;14.18;;
69750;SDS011;57335;52.288;6.056;2023-05-07T07:34:49;39.83;;;15.95;;
69750;SDS011;57335;52.288;6.056;2023-05-07T07:37:16;30.58;;;15.25;;
69750;SDS011;57335;52.288;6.056;2023-05-07T07:39:42;30.35;;;15.07;;
69750;SDS011;57335;52.288;6.056;2023-05-07T07:42:08;30.63;;;14.32;;
69750;SDS011;57335;52.288;6.056;2023-05-07T07:44:35;28.55;;;14.30;;
69750;SDS011;57335;52.288;6.056;2023-05-07T07:47:01;28.02;;;14.32;;
69750;SDS011;57335;52.288;6.056;2023-05-07T07:49:27;28.30;;;14.23;;
69750;SDS011;57335;52.288;6.056;2023-05-07T07:51:54;28.58;;;15.38;;
69750;SDS011;57335;52.288;6.056;2023-05-07T07:54:20;26.77;;;14.45;;
69750;SDS011;57335;52.288;6.056;2023-05-07T07:56:47;27.92;;;14.35;;
69750;SDS011;57335;52.288;6.056;2023-05-07T07:59:13;25.58;;;13.55;;
69750;SDS011;57335;52.288;6.056;2023-05-07T08:01:39;26.27;;;13.73;;
69750;SDS011;57335;52.288;6.056;2023-05-07T08:04:06;25.05;;;13.15;;
69750;SDS011;57335;52.288;6.056;2023-05-07T08:06:32;23.15;;;13.15;;
69750;SDS011;57335;52.288;6.056;2023-05-07T08:08:58;24.55;;;12.73;;
69750;SDS011;57335;52.288;6.056;2023-05-07T08:11:25;24.00;;;12.32;;
69750;SDS011;57335;52.288;6.056;2023-05-07T08:13:51;23.40;;;12.55;;
69750;SDS011;57335;52.288;6.056;2023-05-07T08:16:20;24.50;;;13.52;;
69750;SDS011;57335;52.288;6.056;2023-05-07T08:18:48;24.30;;;12.68;;
69750;SDS011;57335;52.288;6.056;2023-05-07T08:21:15;24.20;;;12.52;;
69750;SDS011;57335;52.288;6.056;2023-05-07T08:23:41;21.60;;;11.50;;
69750;SDS011;57335;52.288;6.056;2023-05-07T08:26:07;21.75;;;10.82;;
69750;SDS011;57335;52.288;6.056;2023-05-07T08:28:35;25.38;;;13.07;;
69750;SDS011;57335;52.288;6.056;2023-05-07T08:31:01;24.52;;;13.80;;
69750;SDS011;57335;52.288;6.056;2023-05-07T08:33:28;26.30;;;13.38;;
69750;SDS011;57335;52.288;6.056;2023-05-07T08:35:54;23.17;;;11.55;;
69750;SDS011;57335;52.288;6.056;2023-05-07T08:38:20;25.50;;;14.82;;
69750;SDS011;57335;52.288;6.056;2023-05-07T08:40:47;22.58;;;11.73;;
69750;SDS011;57335;52.288;6.056;2023-05-07T08:43:13;25.73;;;13.63;;
69750;SDS011;57335;52.288;6.056;2023-05-07T08:45:40;22.15;;;11.80;;
69750;SDS011;57335;52.288;6.056;2023-05-07T08:48:14;22.25;;;12.25;;
69750;SDS011;57335;52.288;6.056;2023-05-07T08:50:42;23.80;;;11.93;;
69750;SDS011;57335;52.288;6.056;2023-05-07T08:53:08;24.23;;;13.02;;
69750;SDS011;57335;52.288;6.056;2023-05-07T08:55:35;23.67;;;12.40;;
69750;SDS011;57335;52.288;6.056;2023-05-07T08:58:01;24.15;;;12.85;;
69750;SDS011;57335;52.288;6.056;2023-05-07T09:00:27;24.30;;;13.18;;
69750;SDS011;57335;52.288;6.056;2023-05-07T09:02:54;24.88;;;13.38;;
69750;SDS011;57335;52.288;6.056;2023-05-07T09:05:20;23.27;;;12.43;;
69750;SDS011;57335;52.288;6.056;2023-05-07T09:07:46;23.73;;;12.25;;
69750;SDS011;57335;52.288;6.056;2023-05-07T09:10:13;22.23;;;11.75;;
69750;SDS011;57335;52.288;6.056;2023-05-07T09:12:40;26.92;;;13.23;;
69750;SDS011;57335;52.288;6.056;2023-05-07T09:15:06;24.73;;;13.07;;
69750;SDS011;57335;52.288;6.056;2023-05-07T09:17:33;25.42;;;13.25;;
69750;SDS011;57335;52.288;6.056;2023-05-07T09:20:03;22.70;;;12.15;;
69750;SDS011;57335;52.288;6.056;2023-05-07T09:22:32;23.60;;;12.80;;
69750;SDS011;57335;52.288;6.056;2023-05-07T09:24:59;25.45;;;13.60;;
69750;SDS011;57335;52.288;6.056;2023-05-07T09:27:25;22.88;;;12.98;;
69750;SDS011;57335;52.288;6.056;2023-05-07T09:29:52;24.67;;;12.98;;
69750;SDS011;57335;52.288;6.056;2023-05-07T09:32:18;23.13;;;12.23;;
69750;SDS011;57335;52.288;6.056;2023-05-07T09:34:45;24.35;;;13.30;;
69750;SDS011;57335;52.288;6.056;2023-05-07T09:37:12;26.27;;;13.43;;
69750;SDS011;57335;52.288;6.056;2023-05-07T09:39:42;24.88;;;13.20;;
69750;SDS011;57335;52.288;6.056;2023-05-07T09:42:09;23.70;;;12.98;;
69750;SDS011;57335;52.288;6.056;2023-05-07T09:44:37;22.15;;;12.40;;
69750;SDS011;57335;52.288;6.056;2023-05-07T09:47:04;23.58;;;13.15;;
69750;SDS011;57335;52.288;6.056;2023-05-07T09:49:34;24.33;;;12.82;;
69750;SDS011;57335;52.288;6.056;2023-05-07T09:52:02;23.73;;;12.18;;
69750;SDS011;57335;52.288;6.056;2023-05-07T09:54:30;25.35;;;12.70;;
69750;SDS011;57335;52.288;6.056;2023-05-07T09:56:57;23.75;;;13.05;;
69750;SDS011;57335;52.288;6.056;2023-05-07T09:59:24;24.60;;;12.90;;
69750;SDS011;57335;52.288;6.056;2023-05-07T10:01:56;23.17;;;12.68;;
69750;SDS011;57335;52.288;6.056;2023-05-07T10:04:27;20.92;;;11.80;;
69750;SDS011;57335;52.288;6.056;2023-05-07T10:06:54;22.02;;;11.98;;
69750;SDS011;57335;52.288;6.056;2023-05-07T10:09:21;23.33;;;12.40;;
69750;SDS011;57335;52.288;6.056;2023-05-07T10:11:49;24.70;;;13.15;;
69750;SDS011;57335;52.288;6.056;2023-05-07T10:14:15;24.13;;;12.23;;
69750;SDS011;57335;52.288;6.056;2023-05-07T10:16:43;23.50;;;12.50;;
69750;SDS011;57335;52.288;6.056;2023-05-07T10:19:10;26.65;;;13.68;;
69750;SDS011;57335;52.288;6.056;2023-05-07T10:21:37;24.45;;;13.55;;
69750;SDS011;57335;52.288;6.056;2023-05-07T10:24:10;25.88;;;13.98;;
69750;SDS011;57335;52.288;6.056;2023-05-07T10:26:43;24.42;;;13.68;;
69750;SDS011;57335;52.288;6.056;2023-05-07T10:29:18;23.60;;;13.18;;
69750;SDS011;57335;52.288;6.056;2023-05-07T10:31:59;26.80;;;13.52;;
69750;SDS011;57335;52.288;6.056;2023-05-07T10:34:36;24.63;;;12.40;;
69750;SDS011;57335;52.288;6.056;2023-05-07T10:37:06;23.67;;;12.25;;
69750;SDS011;57335;52.288;6.056;2023-05-07T10:39:34;26.77;;;13.95;;
69750;SDS011;57335;52.288;6.056;2023-05-07T10:42:08;24.58;;;12.57;;
69750;SDS011;57335;52.288;6.056;2023-05-07T10:44:35;24.17;;;13.45;;
69750;SDS011;57335;52.288;6.056;2023-05-07T10:47:11;24.63;;;12.70;;
69750;SDS011;57335;52.288;6.056;2023-05-07T10:52:21;25.48;;;13.27;;
69750;SDS011;57335;52.288;6.056;2023-05-07T10:57:36;25.58;;;13.68;;
69750;SDS011;57335;52.288;6.056;2023-05-07T11:00:03;28.67;;;14.80;;
69750;SDS011;57335;52.288;6.056;2023-05-07T11:03:04;27.05;;;14.02;;
69750;SDS011;57335;52.288;6.056;2023-05-07T11:05:29;27.60;;;13.85;;
69750;SDS011;57335;52.288;6.056;2023-05-07T11:08:02;26.48;;;13.48;;
69750;SDS011;57335;52.288;6.056;2023-05-07T11:10:48;27.02;;;14.23;;
69750;SDS011;57335;52.288;6.056;2023-05-07T11:19:03;26.73;;;14.30;;
69750;SDS011;57335;52.288;6.056;2023-05-07T11:21:36;25.13;;;13.57;;
69750;SDS011;57335;52.288;6.056;2023-05-07T11:24:05;25.35;;;12.82;;
69750;SDS011;57335;52.288;6.056;2023-05-07T11:26:41;26.88;;;13.63;;
69750;SDS011;57335;52.288;6.056;2023-05-07T11:29:19;24.42;;;13.38;;
69750;SDS011;57335;52.288;6.056;2023-05-07T11:31:51;26.90;;;13.70;;
69750;SDS011;57335;52.288;6.056;2023-05-07T11:34:22;25.30;;;13.93;;
69750;SDS011;57335;52.288;6.056;2023-05-07T11:36:50;26.33;;;13.80;;
69750;SDS011;57335;52.288;6.056;2023-05-07T11:39:23;23.13;;;12.93;;
69750;SDS011;57335;52.288;6.056;2023-05-07T11:41:50;23.02;;;11.63;;
69750;SDS011;57335;52.288;6.056;2023-05-07T11:44:18;23.92;;;12.55;;
69750;SDS011;57335;52.288;6.056;2023-05-07T11:46:45;24.95;;;12.48;;
69750;SDS011;57335;52.288;6.056;2023-05-07T11:49:11;20.33;;;10.75;;
69750;SDS011;57335;52.288;6.056;2023-05-07T11:51:38;20.65;;;10.48;;
69750;SDS011;57335;52.288;6.056;2023-05-07T11:54:05;19.80;;;9.85;;
69750;SDS011;57335;52.288;6.056;2023-05-07T11:56:33;21.67;;;10.65;;
69750;SDS011;57335;52.288;6.056;2023-05-07T11:59:00;20.27;;;11.07;;
69750;SDS011;57335;52.288;6.056;2023-05-07T12:01:27;19.77;;;10.20;;
69750;SDS011;57335;52.288;6.056;2023-05-07T12:03:53;19.92;;;11.00;;
69750;SDS011;57335;52.288;6.056;2023-05-07T12:06:20;23.13;;;11.95;;
69750;SDS011;57335;52.288;6.056;2023-05-07T12:08:46;20.95;;;11.40;;
69750;SDS011;57335;52.288;6.056;2023-05-07T12:11:18;22.52;;;11.23;;
69750;SDS011;57335;52.288;6.056;2023-05-07T12:13:49;22.13;;;11.65;;
69750;SDS011;57335;52.288;6.056;2023-05-07T12:16:15;23.23;;;12.25;;
69750;SDS011;57335;52.288;6.056;2023-05-07T12:18:42;23.77;;;13.32;;
69750;SDS011;57335;52.288;6.056;2023-05-07T12:21:09;26.40;;;12.18;;
69750;SDS011;57335;52.288;6.056;2023-05-07T12:23:36;22.95;;;11.13;;
69750;SDS011;57335;52.288;6.056;2023-05-07T12:26:03;23.38;;;12.65;;
69750;SDS011;57335;52.288;6.056;2023-05-07T12:28:36;20.40;;;11.43;;
69750;SDS011;57335;52.288;6.056;2023-05-07T12:31:03;20.88;;;11.68;;
69750;SDS011;57335;52.288;6.056;2023-05-07T12:33:30;20.77;;;11.93;;
69750;SDS011;57335;52.288;6.056;2023-05-07T12:35:57;20.63;;;11.63;;
69750;SDS011;57335;52.288;6.056;2023-05-07T12:38:24;23.02;;;12.55;;
69750;SDS011;57335;52.288;6.056;2023-05-07T12:40:53;21.75;;;12.32;;
69750;SDS011;57335;52.288;6.056;2023-05-07T12:43:21;23.50;;;12.70;;
69750;SDS011;57335;52.288;6.056;2023-05-07T12:45:51;23.17;;;13.48;;
69750;SDS011;57335;52.288;6.056;2023-05-07T12:48:20;20.52;;;11.95;;
69750;SDS011;57335;52.288;6.056;2023-05-07T12:50:50;23.33;;;12.18;;
69750;SDS011;57335;52.288;6.056;2023-05-07T12:53:19;17.98;;;10.40;;
69750;SDS011;57335;52.288;6.056;2023-05-07T12:55:49;21.75;;;11.50;;
69750;SDS011;57335;52.288;6.056;2023-05-07T12:58:20;21.73;;;11.43;;
69750;SDS011;57335;52.288;6.056;2023-05-07T13:00:53;20.20;;;11.75;;
69750;SDS011;57335;52.288;6.056;2023-05-07T13:03:21;19.85;;;11.45;;
69750;SDS011;57335;52.288;6.056;2023-05-07T13:05:49;18.77;;;10.98;;
69750;SDS011;57335;52.288;6.056;2023-05-07T13:11:03;21.27;;;11.02;;
69750;SDS011;57335;52.288;6.056;2023-05-07T13:13:30;20.20;;;10.73;;
69750;SDS011;57335;52.288;6.056;2023-05-07T13:15:58;19.63;;;10.85;;
69750;SDS011;57335;52.288;6.056;2023-05-07T13:18:25;19.50;;;10.43;;
69750;SDS011;57335;52.288;6.056;2023-05-07T13:20:52;19.45;;;11.27;;
69750;SDS011;57335;52.288;6.056;2023-05-07T13:23:19;19.70;;;11.18;;
69750;SDS011;57335;52.288;6.056;2023-05-07T13:25:46;18.40;;;10.35;;
69750;SDS011;57335;52.288;6.056;2023-05-07T13:28:12;19.25;;;9.90;;
69750;SDS011;57335;52.288;6.056;2023-05-07T13:30:39;19.63;;;10.07;;
69750;SDS011;57335;52.288;6.056;2023-05-07T13:33:05;19.60;;;10.73;;
69750;SDS011;57335;52.288;6.056;2023-05-07T13:35:32;16.25;;;9.57;;
69750;SDS011;57335;52.288;6.056;2023-05-07T13:37:58;18.52;;;9.80;;
69750;SDS011;57335;52.288;6.056;2023-05-07T13:40:25;19.58;;;11.07;;
69750;SDS011;57335;52.288;6.056;2023-05-07T13:42:51;19.98;;;11.20;;
69750;SDS011;57335;52.288;6.056;2023-05-07T13:45:18;21.13;;;11.95;;
69750;SDS011;57335;52.288;6.056;2023-05-07T13:47:45;22.33;;;12.07;;
69750;SDS011;57335;52.288;6.056;2023-05-07T13:50:12;21.75;;;11.68;;
69750;SDS011;57335;52.288;6.056;2023-05-07T13:52:40;22.40;;;11.98;;
69750;SDS011;57335;52.288;6.056;2023-05-07T13:55:10;19.95;;;11.77;;
69750;SDS011;57335;52.288;6.056;2023-05-07T13:57:36;24.05;;;12.60;;
69750;SDS011;57335;52.288;6.056;2023-05-07T14:00:03;21.58;;;12.18;;
69750;SDS011;57335;52.288;6.056;2023-05-07T14:02:30;21.50;;;12.02;;
69750;SDS011;57335;52.288;6.056;2023-05-07T14:04:57;21.95;;;11.73;;
69750;SDS011;57335;52.288;6.056;2023-05-07T14:07:23;25.40;;;12.55;;
69750;SDS011;57335;52.288;6.056;2023-05-07T14:09:50;23.75;;;12.45;;
69750;SDS011;57335;52.288;6.056;2023-05-07T14:12:16;22.15;;;13.07;;
69750;SDS011;57335;52.288;6.056;2023-05-07T14:14:42;22.20;;;12.45;;
69750;SDS011;57335;52.288;6.056;2023-05-07T14:17:09;22.10;;;13.02;;
69750;SDS011;57335;52.288;6.056;2023-05-07T14:19:35;23.05;;;12.77;;
69750;SDS011;57335;52.288;6.056;2023-05-07T14:22:01;24.25;;;13.57;;
69750;SDS011;57335;52.288;6.056;2023-05-07T14:24:28;25.05;;;13.25;;
69750;SDS011;57335;52.288;6.056;2023-05-07T14:27:03;22.70;;;12.82;;
69750;SDS011;57335;52.288;6.056;2023-05-07T14:29:30;24.52;;;13.23;;
69750;SDS011;57335;52.288;6.056;2023-05-07T14:31:56;21.50;;;12.68;;
69750;SDS011;57335;52.288;6.056;2023-05-07T14:34:23;22.80;;;12.77;;